createdAt,value
2024-01-28T00:00:58.988Z,1.83
2024-01-28T00:06:06.702Z,1.96
2024-01-28T00:11:11.996Z,1.66
2024-01-28T00:16:20.725Z,1.35
2024-01-28T00:21:26.166Z,1.24
2024-01-28T00:26:31.580Z,1.03
2024-01-28T00:31:39.781Z,1.03
2024-01-28T00:36:44.963Z,1.10
2024-01-28T00:41:50.316Z,1.06
2024-01-28T00:46:59.116Z,0.81
2024-01-28T00:52:04.523Z,0.74
2024-01-28T00:57:11.726Z,0.68
2024-01-28T01:02:20.110Z,0.52
2024-01-28T01:07:25.626Z,0.49
2024-01-28T01:12:31.170Z,0.54
2024-01-28T01:17:39.446Z,0.31
2024-01-28T01:22:45.557Z,0.48
2024-01-28T01:27:53.766Z,0.37
2024-01-28T01:33:01.785Z,0.29
2024-01-28T01:38:09.612Z,-0.01
2024-01-28T01:43:17.218Z,0.15
2024-01-28T01:48:28.402Z,0.17
2024-01-28T01:53:35.977Z,0.02
2024-01-28T01:58:41.683Z,-0.15
2024-01-28T02:03:49.882Z,0.27
2024-01-28T02:08:55.280Z,0.17
2024-01-28T02:14:00.515Z,0.05
2024-01-28T02:19:08.390Z,-0.02
2024-01-28T02:24:16.638Z,0.00
2024-01-28T02:29:21.761Z,-0.11
2024-01-28T02:34:27.181Z,-0.28
2024-01-28T02:39:35.389Z,-0.45
2024-01-28T02:44:41.884Z,-0.51
2024-01-28T02:49:49.492Z,-0.31
2024-01-28T02:54:58.296Z,-0.12
2024-01-28T03:00:04.861Z,-0.11
2024-01-28T03:05:13.623Z,-0.10
2024-01-28T03:10:21.815Z,-0.08
2024-01-28T03:15:27.226Z,-0.02
2024-01-28T03:20:32.364Z,-0.02
2024-01-28T03:25:40.145Z,-0.05
2024-01-28T03:30:45.367Z,-0.16
2024-01-28T03:35:50.604Z,-0.25
2024-01-28T03:40:58.764Z,0.04
2024-01-28T03:46:03.892Z,-0.09
2024-01-28T03:51:10.281Z,-0.15
2024-01-28T03:56:18.039Z,-0.47
2024-01-28T04:01:34.014Z,-0.40
2024-01-28T04:06:45.814Z,-0.50
2024-01-28T04:11:56.294Z,-0.55
2024-01-28T04:17:01.989Z,-0.62
2024-01-28T04:22:07.624Z,-0.77
2024-01-28T04:27:15.526Z,-0.57
2024-01-28T04:32:21.562Z,-0.46
2024-01-28T04:37:27.875Z,-0.79
2024-01-28T04:42:35.696Z,-0.70
2024-01-28T04:47:42.937Z,-0.86
2024-01-28T04:52:48.124Z,-0.64
2024-01-28T04:57:55.876Z,-0.60
2024-01-28T05:03:01.951Z,-0.58
2024-01-28T05:08:10.557Z,-0.59
2024-01-28T05:13:18.710Z,-0.69
2024-01-28T05:18:24.352Z,-0.75
2024-01-28T05:23:32.578Z,-0.65
2024-01-28T05:28:43.307Z,-0.57
2024-01-28T05:33:49.211Z,-0.59
2024-01-28T05:38:55.838Z,-0.75
2024-01-28T05:44:04.001Z,-0.73
2024-01-28T05:49:12.946Z,-0.86
2024-01-28T05:54:19.022Z,-0.86
2024-01-28T05:59:28.849Z,-0.61
2024-01-28T06:04:34.379Z,-0.65
2024-01-28T06:09:45.219Z,-0.69
2024-01-28T06:14:54.427Z,-0.69
2024-01-28T06:20:01.089Z,-1.00
2024-01-28T06:25:06.873Z,-0.96
2024-01-28T06:30:16.579Z,-0.95
2024-01-28T06:35:25.029Z,-0.83
2024-01-28T06:40:34.153Z,-0.84
2024-01-28T06:45:42.577Z,-0.73
2024-01-28T06:50:50.013Z,-0.61
2024-01-28T06:55:57.523Z,-0.66
2024-01-28T07:01:05.760Z,-0.65
2024-01-28T07:06:11.418Z,-0.82
2024-01-28T07:11:19.122Z,-0.36
2024-01-28T07:16:27.104Z,-0.56
2024-01-28T07:21:34.789Z,-0.45
2024-01-28T07:26:43.009Z,-0.34
2024-01-28T07:31:52.581Z,-0.26
2024-01-28T07:36:59.921Z,-0.15
2024-01-28T07:42:07.917Z,-0.14
2024-01-28T07:47:16.230Z,-0.13
2024-01-28T07:52:24.195Z,-0.05
2024-01-28T07:57:32.288Z,0.15
2024-01-28T08:02:40.363Z,0.33
2024-01-28T08:07:45.512Z,0.67
2024-01-28T08:12:55.624Z,0.90
2024-01-28T08:18:13.017Z,1.23
2024-01-28T08:23:19.906Z,1.41
2024-01-28T08:28:28.551Z,1.53
2024-01-28T09:31:20.362Z,4.10
2024-01-28T09:36:43.357Z,4.31
2024-01-28T09:41:58.136Z,4.51
2024-01-28T09:47:03.813Z,4.71
2024-01-28T09:52:12.719Z,4.80
2024-01-28T09:57:22.664Z,5.04
2024-01-28T10:02:30.685Z,5.14
2024-01-28T10:07:49.209Z,5.47
2024-01-28T10:13:01.504Z,6.90
2024-01-28T10:18:07.644Z,7.20
2024-01-28T10:23:18.319Z,7.44
2024-01-28T10:28:29.468Z,7.27
2024-01-28T10:33:38.048Z,6.97
2024-01-28T10:38:50.132Z,7.12
2024-01-28T10:44:01.474Z,6.90
2024-01-28T10:49:09.514Z,7.29
2024-01-28T10:54:20.196Z,7.74
2024-01-28T10:59:28.511Z,7.89
2024-01-28T11:04:41.176Z,8.22
2024-01-28T11:09:50.380Z,8.41
2024-01-28T11:14:56.694Z,8.66
2024-01-28T11:20:10.513Z,9.19
2024-01-28T11:25:21.125Z,9.14
2024-01-28T11:30:28.220Z,9.09
2024-01-28T11:35:33.998Z,9.21
2024-01-28T11:40:43.969Z,9.42
2024-01-28T11:45:49.884Z,9.76
2024-01-28T11:50:59.359Z,9.69
2024-01-28T11:56:14.922Z,10.04
2024-01-28T12:01:20.643Z,10.06
2024-01-28T12:06:29.100Z,10.25
2024-01-28T12:11:36.974Z,9.87
2024-01-28T12:16:42.158Z,9.97
2024-01-28T12:21:47.426Z,9.96
2024-01-28T12:26:57.058Z,10.19
2024-01-28T12:32:05.473Z,10.54
2024-01-28T12:37:10.543Z,10.49
2024-01-28T12:42:21.388Z,10.59
2024-01-28T12:47:28.884Z,10.59
2024-01-28T12:52:34.897Z,10.61
2024-01-28T12:57:45.706Z,11.00
2024-01-28T13:02:50.966Z,10.64
2024-01-28T13:07:57.570Z,10.88
2024-01-28T13:13:14.448Z,10.38
2024-01-28T13:18:30.297Z,10.88
2024-01-28T13:23:46.434Z,10.56
2024-01-28T13:28:54.203Z,10.57
2024-01-28T13:34:02.940Z,10.63
2024-01-28T13:39:10.257Z,10.36
2024-01-28T13:44:19.526Z,10.34
2024-01-28T13:49:25.211Z,10.39
2024-01-28T13:54:34.580Z,9.99
2024-01-28T13:59:45.376Z,10.19
2024-01-28T14:04:56.815Z,10.19
2024-01-28T14:10:04.683Z,10.05
2024-01-28T14:15:13.682Z,10.08
2024-01-28T14:20:19.095Z,9.72
2024-01-28T14:25:26.903Z,9.85
2024-01-28T14:30:34.797Z,9.44
2024-01-28T14:35:39.920Z,8.99
2024-01-28T14:40:45.306Z,8.85
2024-01-28T14:45:55.584Z,8.67
2024-01-28T14:51:01.737Z,8.47
2024-01-28T14:56:07.627Z,8.07
2024-01-28T15:01:18.057Z,8.03
2024-01-28T15:06:26.558Z,7.66
2024-01-28T15:11:36.150Z,7.61
2024-01-28T15:16:44.488Z,7.20
2024-01-28T15:21:49.787Z,7.23
2024-01-28T15:26:55.178Z,7.02
2024-01-28T15:32:04.214Z,6.82
2024-01-28T15:37:09.651Z,6.54
2024-01-28T15:42:14.881Z,6.54
2024-01-28T15:47:23.080Z,6.20
2024-01-28T15:52:28.676Z,6.13
2024-01-28T15:57:36.223Z,5.89
2024-01-28T16:02:45.327Z,5.82
2024-01-28T16:07:50.556Z,5.97
2024-01-28T16:12:56.544Z,5.82
2024-01-28T16:18:05.104Z,5.63
2024-01-28T16:23:13.477Z,5.64
2024-01-28T16:28:18.631Z,5.42
2024-01-28T16:33:26.690Z,5.22
2024-01-28T16:38:33.154Z,4.91
2024-01-28T16:43:38.207Z,4.88
2024-01-28T16:48:46.311Z,4.62
2024-01-28T16:53:51.853Z,4.72
2024-01-28T16:58:57.263Z,4.54
2024-01-28T17:04:17.471Z,4.42
2024-01-28T17:09:23.664Z,4.30
2024-01-28T17:14:29.280Z,4.33
2024-01-28T17:19:40.407Z,4.05
2024-01-28T17:24:46.807Z,4.21
2024-01-28T17:29:52.232Z,4.19
2024-01-28T17:35:01.189Z,4.31
2024-01-28T17:40:09.789Z,4.35
2024-01-28T17:45:17.413Z,4.19
2024-01-28T17:50:25.454Z,3.86
2024-01-28T17:55:32.404Z,4.12
2024-01-28T18:00:37.768Z,3.83
2024-01-28T18:05:45.791Z,3.87
2024-01-28T18:10:50.976Z,3.77
2024-01-28T18:15:56.792Z,3.80
2024-01-28T18:21:05.334Z,3.79
2024-01-28T18:26:12.892Z,3.66
2024-01-28T18:31:20.889Z,3.57
2024-01-28T18:36:29.149Z,3.60
2024-01-28T18:41:34.400Z,3.65
2024-01-28T18:46:39.980Z,3.51
2024-01-28T18:51:47.668Z,3.49
2024-01-28T18:56:52.909Z,3.29
2024-01-28T19:02:00.075Z,3.19
2024-01-28T19:07:11.660Z,3.11
2024-01-28T19:12:23.843Z,3.18
2024-01-28T19:17:31.135Z,3.06
2024-01-28T19:22:39.824Z,3.04
2024-01-28T19:27:51.796Z,3.04
2024-01-28T19:32:59.966Z,3.03
2024-01-28T19:38:09.755Z,3.00
2024-01-28T19:43:20.014Z,2.87
2024-01-28T19:48:25.536Z,2.98
2024-01-28T19:53:43.304Z,2.97
2024-01-28T19:58:51.573Z,3.04
2024-01-28T20:04:00.954Z,3.04
2024-01-28T20:09:14.095Z,3.06
2024-01-28T20:20:05.492Z,2.98
2024-01-28T20:31:19.617Z,3.01
2024-01-28T20:53:21.581Z,3.01
2024-01-28T20:58:40.492Z,2.98
2024-01-28T21:26:26.171Z,3.05
2024-01-28T21:31:39.335Z,3.09
2024-01-28T21:42:26.268Z,3.01
2024-01-28T21:47:54.774Z,3.09
2024-01-28T21:53:16.977Z,3.04
2024-01-28T21:58:27.207Z,3.10
2024-01-28T22:03:37.000Z,3.09
2024-01-28T22:08:44.214Z,3.09
2024-01-28T22:13:50.844Z,3.14
2024-01-28T22:19:07.227Z,3.10
2024-01-28T22:24:13.852Z,3.15
2024-01-28T22:29:22.552Z,3.13
2024-01-28T22:34:30.938Z,3.10
2024-01-28T22:39:36.287Z,3.11
2024-01-28T22:44:43.798Z,3.25
2024-01-28T22:49:51.825Z,3.13
2024-01-28T22:54:58.533Z,3.12
2024-01-28T23:00:05.216Z,3.21
2024-01-28T23:05:13.526Z,3.08
2024-01-28T23:10:20.986Z,2.87
2024-01-28T23:15:26.749Z,2.94
2024-01-28T23:20:35.568Z,2.97
2024-01-28T23:25:41.451Z,2.84
2024-01-28T23:30:46.725Z,2.84
2024-01-28T23:35:55.008Z,2.86
2024-01-28T23:41:00.502Z,2.84
2024-01-28T23:46:05.787Z,2.81
2024-01-28T23:51:14.291Z,2.86
2024-01-28T23:56:19.531Z,2.84
